sensor_id;sensor_type;location;lat;lon;timestamp;pressure;altitude;pressure_sealevel;temperature;humidity
48041;BME280;33815;48.386;11.738;2022-12-07T00:02:24;96480.56;;;0.80;100.00
48041;BME280;33815;48.386;11.738;2022-12-07T00:04:49;96483.78;;;0.83;100.00
48041;BME280;33815;48.386;11.738;2022-12-07T00:07:14;96472.97;;;0.78;100.00
48041;BME280;33815;48.386;11.738;2022-12-07T00:09:40;96469.78;;;0.75;100.00
48041;BME280;33815;48.386;11.738;2022-12-07T00:12:06;96477.28;;;0.78;100.00
48041;BME280;33815;48.386;11.738;2022-12-07T00:14:32;96464.63;;;0.75;100.00
48041;BME280;33815;48.386;11.738;2022-12-07T00:16:57;96459.34;;;0.63;100.00
48041;BME280;33815;48.386;11.738;2022-12-07T00:19:22;96475.91;;;0.72;100.00
48041;BME280;33815;48.386;11.738;2022-12-07T00:21:48;96467.22;;;0.75;100.00
48041;BME280;33815;48.386;11.738;2022-12-07T00:24:13;96465.94;;;0.67;100.00
48041;BME280;33815;48.386;11.738;2022-12-07T00:26:40;96449.59;;;0.54;100.00
48041;BME280;33815;48.386;11.738;2022-12-07T00:29:15;96451.97;;;0.57;100.00
48041;BME280;33815;48.386;11.738;2022-12-07T00:31:41;96472.88;;;0.65;100.00
48041;BME280;33815;48.386;11.738;2022-12-07T00:34:11;96466.56;;;0.71;100.00
48041;BME280;33815;48.386;11.738;2022-12-07T00:36:36;96470.41;;;0.64;100.00
48041;BME280;33815;48.386;11.738;2022-12-07T00:39:02;96451.19;;;0.57;100.00
48041;BME280;33815;48.386;11.738;2022-12-07T00:41:28;96471.88;;;0.68;100.00
48041;BME280;33815;48.386;11.738;2022-12-07T00:43:54;96473.06;;;0.62;100.00
48041;BME280;33815;48.386;11.738;2022-12-07T00:46:20;96469.59;;;0.63;100.00
48041;BME280;33815;48.386;11.738;2022-12-07T00:48:47;96471.88;;;0.68;100.00
48041;BME280;33815;48.386;11.738;2022-12-07T00:51:14;96455.66;;;0.53;100.00
48041;BME280;33815;48.386;11.738;2022-12-07T00:53:40;96466.38;;;0.60;100.00
48041;BME280;33815;48.386;11.738;2022-12-07T00:56:13;96465.56;;;0.59;100.00
48041;BME280;33815;48.386;11.738;2022-12-07T00:58:39;96465.56;;;0.59;100.00
48041;BME280;33815;48.386;11.738;2022-12-07T01:01:06;96470.59;;;0.61;100.00
48041;BME280;33815;48.386;11.738;2022-12-07T01:03:31;96465.47;;;0.61;100.00
48041;BME280;33815;48.386;11.738;2022-12-07T01:05:57;96466.47;;;0.58;100.00
48041;BME280;33815;48.386;11.738;2022-12-07T01:08:24;96468.94;;;0.60;100.00
48041;BME280;33815;48.386;11.738;2022-12-07T01:10:49;96452.47;;;0.49;100.00
48041;BME280;33815;48.386;11.738;2022-12-07T01:13:15;96468.31;;;0.56;100.00
48041;BME280;33815;48.386;11.738;2022-12-07T01:15:44;96472.59;;;0.56;100.00
48041;BME280;33815;48.386;11.738;2022-12-07T01:18:10;96472.69;;;0.54;100.00
48041;BME280;33815;48.386;11.738;2022-12-07T01:20:36;96467.47;;;0.56;100.00
48041;BME280;33815;48.386;11.738;2022-12-07T01:23:02;96463.72;;;0.47;100.00
48041;BME280;33815;48.386;11.738;2022-12-07T01:25:28;96471.78;;;0.55;100.00
48041;BME280;33815;48.386;11.738;2022-12-07T01:27:53;96467.84;;;0.49;100.00
48041;BME280;33815;48.386;11.738;2022-12-07T01:30:18;96468.09;;;0.45;100.00
48041;BME280;33815;48.386;11.738;2022-12-07T01:32:43;96469.75;;;0.46;100.00
48041;BME280;33815;48.386;11.738;2022-12-07T01:35:09;96463.34;;;0.39;100.00
48041;BME280;33815;48.386;11.738;2022-12-07T01:37:38;96472.69;;;0.40;100.00
48041;BME280;33815;48.386;11.738;2022-12-07T01:40:07;96458.41;;;0.36;100.00
48041;BME280;33815;48.386;11.738;2022-12-07T01:42:33;96449.56;;;0.25;100.00
48041;BME280;33815;48.386;11.738;2022-12-07T01:47:46;96458.22;;;0.39;100.00
48041;BME280;33815;48.386;11.738;2022-12-07T01:50:12;96442.53;;;0.29;100.00
48041;BME280;33815;48.386;11.738;2022-12-07T01:52:40;96455.19;;;0.32;100.00
48041;BME280;33815;48.386;11.738;2022-12-07T01:55:10;96466.91;;;0.36;100.00
48041;BME280;33815;48.386;11.738;2022-12-07T01:57:40;96453.38;;;0.34;100.00
48041;BME280;33815;48.386;11.738;2022-12-07T02:00:07;96443.63;;;0.25;100.00
48041;BME280;33815;48.386;11.738;2022-12-07T02:02:35;96453.19;;;0.37;100.00
48041;BME280;33815;48.386;11.738;2022-12-07T02:05:04;96448.94;;;0.22;100.00
48041;BME280;33815;48.386;11.738;2022-12-07T02:07:31;96450.81;;;0.34;100.00
48041;BME280;33815;48.386;11.738;2022-12-07T02:09:57;96456.28;;;0.28;100.00
48041;BME280;33815;48.386;11.738;2022-12-07T02:12:23;96452.31;;;0.22;100.00
48041;BME280;33815;48.386;11.738;2022-12-07T02:14:50;96462.50;;;0.24;100.00
48041;BME280;33815;48.386;11.738;2022-12-07T02:17:19;96450.59;;;0.23;100.00
48041;BME280;33815;48.386;11.738;2022-12-07T02:20:03;96454.69;;;0.25;100.00
48041;BME280;33815;48.386;11.738;2022-12-07T02:25:42;96457.53;;;0.21;100.00
48041;BME280;33815;48.386;11.738;2022-12-07T02:28:30;96435.94;;;0.10;100.00
48041;BME280;33815;48.386;11.738;2022-12-07T02:30:59;96450.84;;;0.18;100.00
48041;BME280;33815;48.386;11.738;2022-12-07T02:33:33;96448.84;;;0.09;100.00
48041;BME280;33815;48.386;11.738;2022-12-07T02:36:07;96450.03;;;0.17;100.00
48041;BME280;33815;48.386;11.738;2022-12-07T02:38:39;96453.50;;;0.16;100.00
48041;BME280;33815;48.386;11.738;2022-12-07T02:41:16;96450.31;;;0.13;100.00
48041;BME280;33815;48.386;11.738;2022-12-07T02:43:51;96459.56;;;0.15;100.00
48041;BME280;33815;48.386;11.738;2022-12-07T02:46:22;96450.22;;;0.14;100.00
48041;BME280;33815;48.386;11.738;2022-12-07T02:48:49;96449.47;;;0.12;100.00
48041;BME280;33815;48.386;11.738;2022-12-07T02:51:17;96454.59;;;0.12;100.00
48041;BME280;33815;48.386;11.738;2022-12-07T02:53:43;96441.25;;;0.07;100.00
48041;BME280;33815;48.386;11.738;2022-12-07T03:04:57;96445.53;;;0.07;100.00
48041;BME280;33815;48.386;11.738;2022-12-07T03:10:16;96437.75;;;0.08;100.00
48041;BME280;33815;48.386;11.738;2022-12-07T03:13:03;96433.47;;;0.09;100.00
48041;BME280;33815;48.386;11.738;2022-12-07T03:15:31;96441.88;;;0.11;100.00
48041;BME280;33815;48.386;11.738;2022-12-07T03:17:59;96443.81;;;0.07;100.00
48041;BME280;33815;48.386;11.738;2022-12-07T03:20:27;96447.47;;;0.03;100.00
48041;BME280;33815;48.386;11.738;2022-12-07T03:22:54;96442.25;;;0.05;100.00
48041;BME280;33815;48.386;11.738;2022-12-07T03:25:20;96441.34;;;0.06;100.00
48041;BME280;33815;48.386;11.738;2022-12-07T03:27:55;96438.38;;;-0.03;100.00
48041;BME280;33815;48.386;11.738;2022-12-07T03:30:24;96434.28;;;0.09;100.00
48041;BME280;33815;48.386;11.738;2022-12-07T03:32:59;96425.88;;;0.07;100.00
48041;BME280;33815;48.386;11.738;2022-12-07T03:35:36;96437.03;;;0.06;100.00
48041;BME280;33815;48.386;11.738;2022-12-07T03:38:13;96430.78;;;-0.04;100.00
48041;BME280;33815;48.386;11.738;2022-12-07T03:40:51;96438.22;;;0.01;100.00
48041;BME280;33815;48.386;11.738;2022-12-07T03:43:20;96436.47;;;0.01;100.00
48041;BME280;33815;48.386;11.738;2022-12-07T03:48:43;96428.13;;;-0.03;100.00
48041;BME280;33815;48.386;11.738;2022-12-07T03:51:21;96433.25;;;-0.03;100.00
48041;BME280;33815;48.386;11.738;2022-12-07T03:54:05;96429.84;;;-0.03;100.00
48041;BME280;33815;48.386;11.738;2022-12-07T03:56:35;96419.88;;;-0.08;100.00
48041;BME280;33815;48.386;11.738;2022-12-07T03:59:00;96415.03;;;-0.12;100.00
48041;BME280;33815;48.386;11.738;2022-12-07T04:01:25;96422.94;;;-0.01;100.00
48041;BME280;33815;48.386;11.738;2022-12-07T04:03:51;96420.38;;;-0.01;100.00
48041;BME280;33815;48.386;11.738;2022-12-07T04:06:16;96410.34;;;-0.06;100.00
48041;BME280;33815;48.386;11.738;2022-12-07T04:08:42;96413.00;;;-0.07;100.00
48041;BME280;33815;48.386;11.738;2022-12-07T04:11:07;96407.75;;;-0.04;100.00
48041;BME280;33815;48.386;11.738;2022-12-07T04:13:32;96403.25;;;-0.01;100.00
48041;BME280;33815;48.386;11.738;2022-12-07T04:16:17;96412.88;;;0.10;100.00
48041;BME280;33815;48.386;11.738;2022-12-07T04:18:43;96424.84;;;0.10;100.00
48041;BME280;33815;48.386;11.738;2022-12-07T04:21:08;96415.25;;;0.13;100.00
48041;BME280;33815;48.386;11.738;2022-12-07T04:23:33;96421.28;;;0.12;100.00
48041;BME280;33815;48.386;11.738;2022-12-07T04:25:58;96400.97;;;-0.05;100.00
48041;BME280;33815;48.386;11.738;2022-12-07T04:28:24;96420.00;;;0.20;100.00
48041;BME280;33815;48.386;11.738;2022-12-07T04:30:49;96422.94;;;0.13;100.00
48041;BME280;33815;48.386;11.738;2022-12-07T04:33:14;96420.47;;;0.12;100.00
48041;BME280;33815;48.386;11.738;2022-12-07T04:35:42;96411.13;;;0.11;100.00
48041;BME280;33815;48.386;11.738;2022-12-07T04:38:07;96395.47;;;0.01;100.00
48041;BME280;33815;48.386;11.738;2022-12-07T04:40:32;96399.41;;;0.07;100.00
48041;BME280;33815;48.386;11.738;2022-12-07T04:42:58;96403.91;;;0.03;100.00
48041;BME280;33815;48.386;11.738;2022-12-07T04:45:23;96416.25;;;0.11;100.00
48041;BME280;33815;48.386;11.738;2022-12-07T04:47:48;96397.31;;;-0.01;100.00
48041;BME280;33815;48.386;11.738;2022-12-07T04:50:13;96414.78;;;0.07;100.00
48041;BME280;33815;48.386;11.738;2022-12-07T04:52:39;96407.00;;;0.08;100.00
48041;BME280;33815;48.386;11.738;2022-12-07T04:55:04;96414.34;;;0.14;100.00
48041;BME280;33815;48.386;11.738;2022-12-07T04:57:29;96409.66;;;0.07;100.00
48041;BME280;33815;48.386;11.738;2022-12-07T04:59:55;96413.44;;;0.15;100.00
48041;BME280;33815;48.386;11.738;2022-12-07T05:02:20;96414.53;;;0.11;100.00
48041;BME280;33815;48.386;11.738;2022-12-07T05:04:45;96420.47;;;0.12;100.00
48041;BME280;33815;48.386;11.738;2022-12-07T05:07:10;96415.34;;;0.12;100.00
48041;BME280;33815;48.386;11.738;2022-12-07T05:09:36;96414.59;;;0.10;100.00
48041;BME280;33815;48.386;11.738;2022-12-07T05:12:01;96407.19;;;0.05;100.00
48041;BME280;33815;48.386;11.738;2022-12-07T05:14:26;96414.78;;;0.07;100.00
48041;BME280;33815;48.386;11.738;2022-12-07T05:16:51;96420.09;;;0.04;100.00
48041;BME280;33815;48.386;11.738;2022-12-07T05:19:19;96426.88;;;0.05;100.00
48041;BME280;33815;48.386;11.738;2022-12-07T05:21:44;96410.50;;;0.07;100.00
48041;BME280;33815;48.386;11.738;2022-12-07T05:24:12;96401.53;;;0.00;100.00
48041;BME280;33815;48.386;11.738;2022-12-07T05:26:38;96422.47;;;0.07;100.00
48041;BME280;33815;48.386;11.738;2022-12-07T05:29:03;96422.38;;;0.08;100.00
48041;BME280;33815;48.386;11.738;2022-12-07T05:31:29;96422.47;;;0.07;100.00
48041;BME280;33815;48.386;11.738;2022-12-07T05:33:54;96414.69;;;0.08;100.00
48041;BME280;33815;48.386;11.738;2022-12-07T05:36:19;96408.94;;;0.05;100.00
48041;BME280;33815;48.386;11.738;2022-12-07T05:38:45;96401.59;;;-0.02;100.00
48041;BME280;33815;48.386;11.738;2022-12-07T05:41:15;96420.91;;;0.04;100.00
48041;BME280;33815;48.386;11.738;2022-12-07T05:44:00;96423.75;;;-0.01;100.00
48041;BME280;33815;48.386;11.738;2022-12-07T05:46:26;96426.47;;;-0.04;100.00
48041;BME280;33815;48.386;11.738;2022-12-07T05:48:51;96413.31;;;0.03;100.00
48041;BME280;33815;48.386;11.738;2022-12-07T05:51:16;96401.94;;;-0.08;100.00
48041;BME280;33815;48.386;11.738;2022-12-07T05:53:42;96418.69;;;-0.02;100.00
48041;BME280;33815;48.386;11.738;2022-12-07T05:56:07;96412.88;;;-0.04;100.00
48041;BME280;33815;48.386;11.738;2022-12-07T05:58:32;96422.75;;;0.02;100.00
48041;BME280;33815;48.386;11.738;2022-12-07T06:01:16;96417.03;;;-0.03;100.00
48041;BME280;33815;48.386;11.738;2022-12-07T06:03:41;96404.59;;;-0.09;100.00
48041;BME280;33815;48.386;11.738;2022-12-07T06:06:06;96410.44;;;-0.07;100.00
48041;BME280;33815;48.386;11.738;2022-12-07T06:08:31;96419.59;;;-0.03;100.00
48041;BME280;33815;48.386;11.738;2022-12-07T06:10:57;96407.78;;;-0.06;100.00
48041;BME280;33815;48.386;11.738;2022-12-07T06:13:40;96414.41;;;-0.02;100.00
48041;BME280;33815;48.386;11.738;2022-12-07T06:16:06;96398.00;;;-0.13;100.00
48041;BME280;33815;48.386;11.738;2022-12-07T06:18:31;96419.22;;;-0.11;100.00
48041;BME280;33815;48.386;11.738;2022-12-07T06:20:57;96400.00;;;-0.19;100.00
48041;BME280;33815;48.386;11.738;2022-12-07T06:23:22;96411.19;;;-0.20;100.00
48041;BME280;33815;48.386;11.738;2022-12-07T06:25:47;96412.28;;;-0.24;100.00
48041;BME280;33815;48.386;11.738;2022-12-07T06:28:12;96424.97;;;-0.22;100.00
48041;BME280;33815;48.386;11.738;2022-12-07T06:30:38;96411.78;;;-0.30;100.00
48041;BME280;33815;48.386;11.738;2022-12-07T06:33:03;96412.50;;;-0.28;100.00
48041;BME280;33815;48.386;11.738;2022-12-07T06:35:28;96405.47;;;-0.39;100.00
48041;BME280;33815;48.386;11.738;2022-12-07T06:37:54;96406.88;;;-0.49;100.00
48041;BME280;33815;48.386;11.738;2022-12-07T06:40:19;96429.59;;;-0.43;100.00
48041;BME280;33815;48.386;11.738;2022-12-07T06:42:44;96422.81;;;-0.44;100.00
48041;BME280;33815;48.386;11.738;2022-12-07T06:45:10;96410.09;;;-0.62;100.00
48041;BME280;33815;48.386;11.738;2022-12-07T06:47:35;96428.81;;;-0.45;100.00
48041;BME280;33815;48.386;11.738;2022-12-07T06:50:00;96425.63;;;-0.49;100.00
48041;BME280;33815;48.386;11.738;2022-12-07T06:52:25;96432.81;;;-0.56;100.00
48041;BME280;33815;48.386;11.738;2022-12-07T06:54:51;96414.00;;;-0.71;100.00
48041;BME280;33815;48.386;11.738;2022-12-07T06:57:16;96413.50;;;-0.77;100.00
48041;BME280;33815;48.386;11.738;2022-12-07T06:59:41;96426.88;;;-0.72;100.00
48041;BME280;33815;48.386;11.738;2022-12-07T07:02:08;96428.88;;;-0.77;100.00
48041;BME280;33815;48.386;11.738;2022-12-07T07:04:33;96431.94;;;-0.87;100.00
48041;BME280;33815;48.386;11.738;2022-12-07T07:06:59;96423.59;;;-0.90;100.00
48041;BME280;33815;48.386;11.738;2022-12-07T07:09:24;96434.25;;;-0.82;100.00
48041;BME280;33815;48.386;11.738;2022-12-07T07:11:49;96428.50;;;-0.85;100.00
48041;BME280;33815;48.386;11.738;2022-12-07T07:14:14;96431.09;;;-0.71;100.00
48041;BME280;33815;48.386;11.738;2022-12-07T07:16:44;96429.63;;;-0.75;100.00
48041;BME280;33815;48.386;11.738;2022-12-07T07:19:09;96425.00;;;-0.68;100.00
48041;BME280;33815;48.386;11.738;2022-12-07T07:21:34;96434.97;;;-0.64;100.00
48041;BME280;33815;48.386;11.738;2022-12-07T07:23:59;96438.94;;;-0.58;100.00
48041;BME280;33815;48.386;11.738;2022-12-07T07:26:25;96420.69;;;-0.68;100.00
48041;BME280;33815;48.386;11.738;2022-12-07T07:28:50;96437.59;;;-0.49;100.00
48041;BME280;33815;48.386;11.738;2022-12-07T07:31:15;96429.50;;;-0.58;100.00
48041;BME280;33815;48.386;11.738;2022-12-07T07:33:40;96425.41;;;-0.60;100.00
48041;BME280;33815;48.386;11.738;2022-12-07T07:36:06;96432.38;;;-0.48;100.00
48041;BME280;33815;48.386;11.738;2022-12-07T07:38:31;96434.44;;;-0.39;100.00
48041;BME280;33815;48.386;11.738;2022-12-07T07:40:56;96426.19;;;-0.44;100.00
48041;BME280;33815;48.386;11.738;2022-12-07T07:43:22;96438.75;;;-0.39;100.00
48041;BME280;33815;48.386;11.738;2022-12-07T07:45:47;96422.63;;;-0.41;100.00
48041;BME280;33815;48.386;11.738;2022-12-07T07:48:12;96433.69;;;-0.41;100.00
48041;BME280;33815;48.386;11.738;2022-12-07T07:50:38;96426.94;;;-0.42;100.00
48041;BME280;33815;48.386;11.738;2022-12-07T07:53:03;96440.91;;;-0.47;100.00
48041;BME280;33815;48.386;11.738;2022-12-07T07:55:28;96420.44;;;-0.63;100.00
48041;BME280;33815;48.386;11.738;2022-12-07T07:57:53;96438.84;;;-0.57;100.00
48041;BME280;33815;48.386;11.738;2022-12-07T08:00:19;96449.16;;;-0.58;100.00
48041;BME280;33815;48.386;11.738;2022-12-07T08:02:44;96451.31;;;-0.66;100.00
48041;BME280;33815;48.386;11.738;2022-12-07T08:05:11;96455.84;;;-0.72;100.00
48041;BME280;33815;48.386;11.738;2022-12-07T08:07:37;96462.47;;;-0.67;100.00
48041;BME280;33815;48.386;11.738;2022-12-07T08:10:03;96455.94;;;-0.73;100.00
48041;BME280;33815;48.386;11.738;2022-12-07T08:12:28;96456.72;;;-0.71;100.00
48041;BME280;33815;48.386;11.738;2022-12-07T08:14:54;96458.59;;;-0.75;100.00
48041;BME280;33815;48.386;11.738;2022-12-07T08:17:19;96473.44;;;-0.81;100.00
48041;BME280;33815;48.386;11.738;2022-12-07T08:19:44;96454.31;;;-0.90;100.00
48041;BME280;33815;48.386;11.738;2022-12-07T08:22:09;96472.97;;;-0.88;100.00
48041;BME280;33815;48.386;11.738;2022-12-07T08:24:35;96470.06;;;-0.98;100.00
48041;BME280;33815;48.386;11.738;2022-12-07T08:27:01;96470.59;;;-0.91;100.00
48041;BME280;33815;48.386;11.738;2022-12-07T08:29:27;96477.34;;;-0.90;100.00
48041;BME280;33815;48.386;11.738;2022-12-07T08:31:52;96482.03;;;-0.98;100.00
48041;BME280;33815;48.386;11.738;2022-12-07T08:34:18;96485.09;;;-0.92;100.00
48041;BME280;33815;48.386;11.738;2022-12-07T08:36:43;96472.00;;;-0.85;100.00
48041;BME280;33815;48.386;11.738;2022-12-07T08:39:08;96485.59;;;-0.85;100.00
48041;BME280;33815;48.386;11.738;2022-12-07T08:41:34;96471.31;;;-0.89;100.00
48041;BME280;33815;48.386;11.738;2022-12-07T08:43:59;96472.63;;;-0.98;100.00
48041;BME280;33815;48.386;11.738;2022-12-07T08:46:46;96485.19;;;-0.93;100.00
48041;BME280;33815;48.386;11.738;2022-12-07T08:49:18;96477.25;;;-1.05;100.00
48041;BME280;33815;48.386;11.738;2022-12-07T08:51:45;96478.91;;;-1.04;100.00
48041;BME280;33815;48.386;11.738;2022-12-07T08:54:14;96482.94;;;-0.83;100.00
48041;BME280;33815;48.386;11.738;2022-12-07T08:56:40;96484.59;;;-0.66;100.00
48041;BME280;33815;48.386;11.738;2022-12-07T08:59:06;96486.31;;;-0.51;100.00
48041;BME280;33815;48.386;11.738;2022-12-07T09:01:32;96489.53;;;-0.31;100.00
48041;BME280;33815;48.386;11.738;2022-12-07T09:03:58;96480.66;;;-0.26;100.00
48041;BME280;33815;48.386;11.738;2022-12-07T09:06:23;96482.94;;;-0.05;100.00
48041;BME280;33815;48.386;11.738;2022-12-07T09:08:51;96474.75;;;0.19;100.00
48041;BME280;33815;48.386;11.738;2022-12-07T09:11:19;96483.53;;;0.14;100.00
48041;BME280;33815;48.386;11.738;2022-12-07T09:13:44;96473.59;;;0.24;100.00
48041;BME280;33815;48.386;11.738;2022-12-07T09:16:10;96465.53;;;0.30;100.00
48041;BME280;33815;48.386;11.738;2022-12-07T09:18:35;96481.38;;;0.51;100.00
48041;BME280;33815;48.386;11.738;2022-12-07T09:21:01;96482.31;;;0.65;100.00
48041;BME280;33815;48.386;11.738;2022-12-07T09:23:26;96478.75;;;0.82;100.00
48041;BME280;33815;48.386;11.738;2022-12-07T09:25:51;96478.63;;;0.98;100.00
48041;BME280;33815;48.386;11.738;2022-12-07T09:28:16;96464.06;;;0.98;100.00
48041;BME280;33815;48.386;11.738;2022-12-07T09:30:48;96471.19;;;1.22;100.00
48041;BME280;33815;48.386;11.738;2022-12-07T09:33:14;96475.16;;;1.41;100.00
48041;BME280;33815;48.386;11.738;2022-12-07T09:35:52;96478.19;;;1.47;100.00
48041;BME280;33815;48.386;11.738;2022-12-07T09:38:19;96482.53;;;1.60;100.00
48041;BME280;33815;48.386;11.738;2022-12-07T09:40:45;96474.53;;;1.64;100.00
48041;BME280;33815;48.386;11.738;2022-12-07T09:43:13;96468.19;;;1.70;100.00
48041;BME280;33815;48.386;11.738;2022-12-07T09:45:40;96443.75;;;1.77;100.00
48041;BME280;33815;48.386;11.738;2022-12-07T09:48:16;96465.22;;;1.76;100.00
48041;BME280;33815;48.386;11.738;2022-12-07T09:50:42;96454.03;;;1.77;100.00
48041;BME280;33815;48.386;11.738;2022-12-07T09:53:12;96458.84;;;1.69;100.00
48041;BME280;33815;48.386;11.738;2022-12-07T09:55:40;96446.38;;;1.63;100.00
48041;BME280;33815;48.386;11.738;2022-12-07T09:58:12;96436.16;;;1.48;100.00
48041;BME280;33815;48.386;11.738;2022-12-07T10:00:42;96457.53;;;1.49;100.00
48041;BME280;33815;48.386;11.738;2022-12-07T10:03:09;96445.38;;;1.38;100.00
48041;BME280;33815;48.386;11.738;2022-12-07T10:05:46;96467.94;;;1.33;100.00
48041;BME280;33815;48.386;11.738;2022-12-07T10:08:14;96447.91;;;1.11;100.00
48041;BME280;33815;48.386;11.738;2022-12-07T10:10:42;96449.28;;;1.02;100.00
48041;BME280;33815;48.386;11.738;2022-12-07T10:13:14;96463.78;;;1.03;100.00
48041;BME280;33815;48.386;11.738;2022-12-07T10:18:55;96461.50;;;0.98;100.00
48041;BME280;33815;48.386;11.738;2022-12-07T10:29:18;96450.34;;;1.81;100.00
48041;BME280;33815;48.386;11.738;2022-12-07T10:31:46;96443.41;;;2.22;100.00
48041;BME280;33815;48.386;11.738;2022-12-07T10:34:22;96443.50;;;2.85;100.00
48041;BME280;33815;48.386;11.738;2022-12-07T10:36:50;96435.97;;;2.95;100.00
48041;BME280;33815;48.386;11.738;2022-12-07T10:39:20;96435.06;;;3.07;100.00
48041;BME280;33815;48.386;11.738;2022-12-07T10:41:57;96426.38;;;2.84;100.00
48041;BME280;33815;48.386;11.738;2022-12-07T10:44:33;96430.22;;;2.78;100.00
48041;BME280;33815;48.386;11.738;2022-12-07T10:47:19;96432.53;;;2.94;100.00
48041;BME280;33815;48.386;11.738;2022-12-07T10:50:07;96427.00;;;2.74;100.00
48041;BME280;33815;48.386;11.738;2022-12-07T10:52:58;96428.88;;;2.72;100.00
48041;BME280;33815;48.386;11.738;2022-12-07T10:55:51;96418.22;;;2.90;100.00
48041;BME280;33815;48.386;11.738;2022-12-07T10:58:31;96416.84;;;3.10;100.00
48041;BME280;33815;48.386;11.738;2022-12-07T11:01:31;96422.19;;;3.20;100.00
48041;BME280;33815;48.386;11.738;2022-12-07T11:07:40;96407.66;;;3.43;100.00
48041;BME280;33815;48.386;11.738;2022-12-07T11:18:29;96405.78;;;3.21;100.00
48041;BME280;33815;48.386;11.738;2022-12-07T11:21:13;96403.59;;;3.28;100.00
48041;BME280;33815;48.386;11.738;2022-12-07T11:32:04;96393.63;;;3.47;99.99
48041;BME280;33815;48.386;11.738;2022-12-07T11:34:46;96381.03;;;3.31;98.43
48041;BME280;33815;48.386;11.738;2022-12-07T11:37:20;96377.34;;;3.22;98.31
48041;BME280;33815;48.386;11.738;2022-12-07T11:39:50;96396.38;;;3.33;98.41
48041;BME280;33815;48.386;11.738;2022-12-07T11:42:26;96388.66;;;3.33;96.63
48041;BME280;33815;48.386;11.738;2022-12-07T11:45:13;96384.88;;;3.25;97.64
48041;BME280;33815;48.386;11.738;2022-12-07T11:50:42;96378.81;;;3.38;97.35
48041;BME280;33815;48.386;11.738;2022-12-07T11:55:50;96384.47;;;3.43;95.93
48041;BME280;33815;48.386;11.738;2022-12-07T12:03:43;96363.25;;;3.39;97.50
48041;BME280;33815;48.386;11.738;2022-12-07T12:06:10;96366.81;;;3.50;97.71
48041;BME280;33815;48.386;11.738;2022-12-07T12:08:39;96358.22;;;3.73;97.07
48041;BME280;33815;48.386;11.738;2022-12-07T12:11:31;96360.91;;;3.72;94.74
48041;BME280;33815;48.386;11.738;2022-12-07T12:19:58;96354.41;;;3.55;97.57
48041;BME280;33815;48.386;11.738;2022-12-07T12:22:33;96333.66;;;3.45;95.17
48041;BME280;33815;48.386;11.738;2022-12-07T12:24:59;96342.59;;;3.52;93.82
48041;BME280;33815;48.386;11.738;2022-12-07T12:27:34;96338.69;;;3.47;94.24
48041;BME280;33815;48.386;11.738;2022-12-07T12:30:07;96341.97;;;3.49;94.12
48041;BME280;33815;48.386;11.738;2022-12-07T12:32:48;96324.25;;;3.33;93.80
48041;BME280;33815;48.386;11.738;2022-12-07T12:35:30;96322.59;;;3.32;93.75
48041;BME280;33815;48.386;11.738;2022-12-07T12:40:46;96336.41;;;3.31;92.67
48041;BME280;33815;48.386;11.738;2022-12-07T12:43:40;96336.84;;;3.24;93.68
48041;BME280;33815;48.386;11.738;2022-12-07T12:51:42;96347.31;;;3.34;94.02
48041;BME280;33815;48.386;11.738;2022-12-07T12:59:24;96344.91;;;3.20;92.17
48041;BME280;33815;48.386;11.738;2022-12-07T13:01:56;96335.28;;;3.11;93.51
48041;BME280;33815;48.386;11.738;2022-12-07T13:04:47;96342.59;;;3.28;90.92
48041;BME280;33815;48.386;11.738;2022-12-07T13:13:01;96335.09;;;3.01;90.63
48041;BME280;33815;48.386;11.738;2022-12-07T13:15:46;96336.25;;;2.97;90.08
48041;BME280;33815;48.386;11.738;2022-12-07T13:23:52;96324.63;;;2.91;89.19
48041;BME280;33815;48.386;11.738;2022-12-07T13:28:52;96322.81;;;2.80;90.39
48041;BME280;33815;48.386;11.738;2022-12-07T13:31:34;96302.91;;;2.71;91.15
48041;BME280;33815;48.386;11.738;2022-12-07T13:34:01;96317.19;;;2.75;90.98
48041;BME280;33815;48.386;11.738;2022-12-07T13:36:30;96316.47;;;2.73;90.92
48041;BME280;33815;48.386;11.738;2022-12-07T13:39:15;96312.34;;;2.70;89.54
48041;BME280;33815;48.386;11.738;2022-12-07T13:41:42;96318.53;;;2.68;89.03
48041;BME280;33815;48.386;11.738;2022-12-07T13:44:15;96319.03;;;2.73;90.52
48041;BME280;33815;48.386;11.738;2022-12-07T13:46:52;96303.34;;;2.52;90.20
48041;BME280;33815;48.386;11.738;2022-12-07T13:49:29;96314.56;;;2.64;91.85
48041;BME280;33815;48.386;11.738;2022-12-07T13:51:55;96317.72;;;2.67;90.54
48041;BME280;33815;48.386;11.738;2022-12-07T13:54:21;96321.72;;;2.71;92.77
48041;BME280;33815;48.386;11.738;2022-12-07T13:56:51;96315.13;;;2.67;90.91
48041;BME280;33815;48.386;11.738;2022-12-07T13:59:19;96296.25;;;2.55;91.34
48041;BME280;33815;48.386;11.738;2022-12-07T14:01:47;96313.81;;;2.62;92.37
48041;BME280;33815;48.386;11.738;2022-12-07T14:04:36;96314.03;;;2.59;91.51
48041;BME280;33815;48.386;11.738;2022-12-07T14:07:25;96311.69;;;2.55;92.12
48041;BME280;33815;48.386;11.738;2022-12-07T14:10:24;96317.50;;;2.70;92.15
48041;BME280;33815;48.386;11.738;2022-12-07T14:12:50;96318.97;;;2.62;91.24
48041;BME280;33815;48.386;11.738;2022-12-07T14:15:24;96313.03;;;2.48;91.20
48041;BME280;33815;48.386;11.738;2022-12-07T14:17:53;96303.50;;;2.37;90.58
48041;BME280;33815;48.386;11.738;2022-12-07T14:20:39;96316.84;;;2.43;91.60
48041;BME280;33815;48.386;11.738;2022-12-07T14:23:19;96295.47;;;2.29;91.80
48041;BME280;33815;48.386;11.738;2022-12-07T14:25:49;96301.44;;;2.30;90.94
48041;BME280;33815;48.386;11.738;2022-12-07T14:28:30;96309.66;;;2.35;90.68
48041;BME280;33815;48.386;11.738;2022-12-07T14:30:56;96308.22;;;2.31;90.85
48041;BME280;33815;48.386;11.738;2022-12-07T14:33:21;96305.66;;;2.31;90.79
48041;BME280;33815;48.386;11.738;2022-12-07T14:35:47;96304.44;;;2.23;89.32